Detall de PIREP

Printer-friendly versionPDF version

[2015/08/24 08:30:00]
Flight IATA:CT3123
Pilot Number:042
Company ICAO:CAT
Aircraft Type:A320/E
PAX:95
Departing Airport: LEZG
Destination Airport: LEPA
Alternate Airport:LEBL
Online: VATSIM
Route:PONEN UN870 BCN UZ167 LORES
Flight Level:F290
No Slew and time accel
No pause
Crash detect
Detect pilot in Cockpit between each 30 and 45 minutes
08:30 Zero fuel Weight: 127653 Lbs, Fuel Weight: 5335 Lbs
08:30 VATSIM:LEZG 240800Z 32009KT 290V350 9999 SCT067 20/07 Q1013
08:30 VATSIM:LEPA 240800Z 26016KT 230V290 9999 FEW020 29/18 Q1010 NOSIG
08:33 Parking Brakes off
08:41 Take-off
08:41 Take off Weight: 95965 Lbs
08:41 Wind: 000º @ 000 Knots Heading: 301º
08:41 POS N41º 39´ 36´´ W001º 01´ 09´´
08:41 Gear Up: 152 Knots
08:41 Flaps:3 at 152 Knots
08:41 Flaps:2 at 169 Knots
08:41 Flaps:0 at 169 Knots
08:48 TOC
08:48 Fuel Weight: 3495 Lb
08:56 Wind:270º@025 Knots Heading: 091º Ground Speed: 453 Knots Altitude 28992 ft
09:11 Wind:270º@025 Knots Heading: 153º Ground Speed: 439 Knots Altitude 28992 ft
09:11 TOD
09:11 Fuel Weight: 1427 Lb
09:22 Flaps:1 at 235 Knots
09:22 Flaps:0 at 235 Knots
09:23 Flaps:1 at 228 Knots
09:24 Flaps:3 at 192 Knots
09:24 Gear Down: 124 Knots
09:26 Wind:000º@000 Knots Heading: 208º Ground Speed: 129 Knots Altitude 2995 ft
09:26 Flaps:4 at 124 Knots
09:26 Flaps:5 at 124 Knots
09:31 TouchDown:Rate -275 ft/min Speed: 104 Knots
09:31 VATSIM:LEPA 240900Z 25020KT 9999 FEW020 29/18 Q1010 NOSIG
09:31 Land
09:31 Wind:000º@000 Knots
09:31 Heading: 238º
09:31 Flight Duration: 00:50
09:31 Landing Weight: 91439 Lbs
09:31 POS N39º 33´ 26´´ E002º 43´ 57´´
09:34 Parking brakes on
09:34 Block to Block Duration: 01:01
09:34 Final Fuel: 423 Lbls
09:34 Spent Fuel: 4911 Lbls
09:34 Flight Length: 295 NM
09:34 TOD Land Length: 84 NM

Exportar CSV

Powered by Drupal - Modified by Danger4k